Time;durP1;ratioP1;P1;durP2;ratioP2;P2;SDS_P1;SDS_P2;PMS_P1;PMS_P2;Temp;Humidity;BMP_temperature;BMP_pressure;BME280_temperature;BME280_humidity;BME280_pressure;Samples;Min_cycle;Max_cycle;Signal;HPM_P1;HPM_P2
2023/04/21 00:01:02;;;;;;;35.93;24.43;;;10.70;80.20;;;;;;5084551;28;20573;-64
2023/04/21 00:03:40;;;;;;;40.00;25.00;;;10.70;80.20;;;;;;5082063;28;20474;-64
2023/04/21 00:06:21;;;;;;;37.63;25.33;;;10.70;80.30;;;;;;5078560;28;20845;-64
2023/04/21 00:08:59;;;;;;;42.33;25.13;;;10.70;80.40;;;;;;5082704;28;20537;-63
2023/04/21 00:11:41;;;;;;;36.87;23.30;;;10.70;80.40;;;;;;5080220;28;20501;-63
2023/04/21 00:14:14;;;;;;;38.50;24.50;;;10.70;80.30;;;;;;5084562;28;20807;-63
2023/04/21 00:16:54;;;;;;;36.90;24.60;;;10.70;80.30;;;;;;5081523;28;20473;-63
2023/04/21 00:19:28;;;;;;;38.13;23.73;;;10.70;80.40;;;;;;5079522;28;20485;-63
2023/04/21 00:22:13;;;;;;;33.17;22.73;;;10.60;80.40;;;;;;5082388;28;20493;-63
2023/04/21 00:24:50;;;;;;;30.67;21.00;;;10.70;80.50;;;;;;5082038;28;20546;-63
2023/04/21 00:27:23;;;;;;;34.83;22.03;;;10.70;80.50;;;;;;5084369;28;21018;-63
2023/04/21 00:29:53;;;;;;;35.90;23.50;;;10.70;80.50;;;;;;5081071;28;20451;-63
2023/04/21 00:32:32;;;;;;;35.07;22.60;;;10.70;80.50;;;;;;5080935;28;20588;-64
2023/04/21 00:35:12;;;;;;;36.90;24.87;;;10.70;80.50;;;;;;5081485;28;20482;-64
2023/04/21 00:37:44;;;;;;;36.60;24.23;;;10.70;80.50;;;;;;5067569;28;20464;-63
2023/04/21 00:40:20;;;;;;;40.00;23.03;;;10.70;80.50;;;;;;5077962;28;20959;-63
2023/04/21 00:42:56;;;;;;;33.77;23.13;;;10.70;80.50;;;;;;5066209;28;20472;-64
2023/04/21 00:45:29;;;;;;;35.40;23.10;;;10.70;80.50;;;;;;5081982;28;21007;-63
2023/04/21 00:48:00;;;;;;;42.67;26.40;;;10.70;80.60;;;;;;5085574;28;21123;-63
2023/04/21 00:50:34;;;;;;;37.20;23.57;;;10.70;80.60;;;;;;5083596;28;20448;-63
2023/04/21 00:53:15;;;;;;;37.00;23.20;;;10.70;80.60;;;;;;5078736;28;20820;-63
2023/04/21 00:55:47;;;;;;;36.53;23.40;;;10.70;80.70;;;;;;5076981;28;20498;-63
2023/04/21 00:58:28;;;;;;;37.53;23.67;;;10.70;80.60;;;;;;5060271;28;20457;-63
2023/04/21 01:01:04;;;;;;;33.23;20.57;;;10.70;80.70;;;;;;5067868;28;20561;-64
2023/04/21 01:03:49;;;;;;;31.80;22.20;;;10.70;80.70;;;;;;5080574;28;20467;-63
2023/04/21 01:06:24;;;;;;;37.73;25.10;;;10.70;80.60;;;;;;5082722;28;20466;-64
2023/04/21 01:08:58;;;;;;;32.40;22.43;;;10.70;80.60;;;;;;5068853;28;20872;-63
2023/04/21 01:11:36;;;;;;;36.10;24.30;;;10.70;80.70;;;;;;5056829;28;20480;-63
2023/04/21 01:14:17;;;;;;;33.03;21.60;;;10.60;80.70;;;;;;5066559;28;20471;-63
2023/04/21 01:16:52;;;;;;;32.87;21.10;;;10.60;80.80;;;;;;5084833;28;20460;-63
2023/04/21 01:19:23;;;;;;;31.40;21.03;;;10.60;80.70;;;;;;5068824;28;20488;-62
2023/04/21 01:22:00;;;;;;;32.70;22.13;;;10.60;80.70;;;;;;5080077;28;20834;-63
2023/04/21 01:24:38;;;;;;;36.60;21.77;;;10.60;80.60;;;;;;5070300;28;20959;-63
2023/04/21 01:27:18;;;;;;;32.60;21.87;;;10.60;80.70;;;;;;5073335;28;20460;-63
2023/04/21 01:29:54;;;;;;;37.20;23.70;;;10.60;80.80;;;;;;5085536;28;20450;-63
2023/04/21 01:32:29;;;;;;;40.90;23.60;;;10.60;80.80;;;;;;5068370;28;20489;-63
2023/04/21 01:35:00;;;;;;;35.70;23.30;;;10.60;80.70;;;;;;5081855;28;20470;-63
2023/04/21 01:37:39;;;;;;;34.77;23.10;;;10.60;80.80;;;;;;5084762;28;20492;-63
2023/04/21 01:40:13;;;;;;;33.77;21.33;;;10.60;80.80;;;;;;5067063;28;20469;-63
2023/04/21 01:42:48;;;;;;;29.07;19.40;;;10.60;80.90;;;;;;5083978;28;20482;-63
2023/04/21 01:45:24;;;;;;;32.20;21.33;;;10.60;80.90;;;;;;5067348;28;20505;-64
2023/04/21 01:48:06;;;;;;;33.43;21.97;;;10.60;80.90;;;;;;5086994;28;20461;-64
2023/04/21 01:50:45;;;;;;;34.60;22.30;;;10.60;80.90;;;;;;5064410;28;20553;-63
2023/04/21 01:53:20;;;;;;;34.27;20.60;;;10.60;80.90;;;;;;5078832;28;20477;-62
2023/04/21 01:55:56;;;;;;;37.23;22.30;;;10.60;80.90;;;;;;5081896;28;20474;-63
2023/04/21 01:58:29;;;;;;;37.00;22.87;;;10.60;81.00;;;;;;5083095;28;20534;-63
2023/04/21 02:01:02;;;;;;;37.30;23.47;;;10.60;80.90;;;;;;5064803;28;21455;-63
2023/04/21 02:03:40;;;;;;;38.63;25.00;;;10.60;81.00;;;;;;5085724;28;21340;-63
2023/04/21 02:06:13;;;;;;;41.13;24.13;;;10.60;81.00;;;;;;5065570;28;20475;-64
2023/04/21 02:09:02;;;;;;;40.67;24.57;;;10.60;80.90;;;;;;5078935;28;20462;-63
2023/04/21 02:11:34;;;;;;;37.70;23.33;;;10.60;81.00;;;;;;5062923;28;20848;-63
2023/04/21 02:14:17;;;;;;;38.07;24.93;;;10.60;81.00;;;;;;5069631;28;20749;-63
2023/04/21 02:16:46;;;;;;;37.57;23.07;;;10.60;81.10;;;;;;5086644;28;20924;-63
2023/04/21 02:19:24;;;;;;;33.40;22.53;;;10.60;81.10;;;;;;5086827;28;20445;-64
2023/04/21 02:22:05;;;;;;;34.90;23.70;;;10.60;81.10;;;;;;5065831;28;20465;-64
2023/04/21 02:24:54;;;;;;;37.93;24.97;;;10.60;81.10;;;;;;5074135;28;20515;-64
2023/04/21 02:27:25;;;;;;;35.10;23.17;;;10.60;81.10;;;;;;5047478;28;20870;-63
2023/04/21 02:30:02;;;;;;;34.43;22.13;;;10.60;81.10;;;;;;5080909;28;20470;-63
2023/04/21 02:32:36;;;;;;;35.40;22.50;;;10.60;81.10;;;;;;5068599;28;20489;-63
2023/04/21 02:35:10;;;;;;;36.67;22.97;;;10.60;81.20;;;;;;5069938;28;20454;-63
2023/04/21 02:37:38;;;;;;;55.23;35.67;;;10.60;81.20;;;;;;5075148;28;20471;-63
2023/04/21 02:40:26;;;;;;;41.00;27.50;;;10.60;81.20;;;;;;5077853;28;20487;-63
2023/04/21 02:43:03;;;;;;;40.30;25.77;;;10.60;81.20;;;;;;5067410;28;20497;-63
2023/04/21 02:45:41;;;;;;;39.67;24.03;;;10.50;81.20;;;;;;5066959;28;20466;-63
2023/04/21 02:48:16;;;;;;;36.30;23.63;;;10.50;81.30;;;;;;5083514;28;20955;-64
2023/04/21 02:50:51;;;;;;;36.37;22.20;;;10.50;81.30;;;;;;5080085;28;20456;-63
2023/04/21 02:53:26;;;;;;;42.10;24.00;;;10.50;81.30;;;;;;5082497;28;20464;-64
2023/04/21 02:56:03;;;;;;;36.97;24.37;;;10.50;81.30;;;;;;5069062;28;20457;-64
2023/04/21 02:58:38;;;;;;;36.17;22.70;;;10.40;81.40;;;;;;5081278;28;20456;-64
2023/04/21 03:03:56;;;;;;;35.33;23.07;;;10.40;81.50;;;;;;5066324;28;20518;-64
2023/04/21 03:06:27;;;;;;;39.50;25.97;;;10.40;81.50;;;;;;5076182;28;20469;-63
2023/04/21 03:08:58;;;;;;;36.63;23.73;;;10.50;81.60;;;;;;5066285;28;20520;-63
2023/04/21 03:11:35;;;;;;;43.33;26.20;;;10.50;81.60;;;;;;5061857;28;20472;-63
2023/04/21 03:14:09;;;;;;;39.67;23.77;;;10.50;81.60;;;;;;5081604;28;20458;-63
2023/04/21 03:16:39;;;;;;;39.77;24.93;;;10.50;81.60;;;;;;5081982;28;20556;-63
2023/04/21 03:19:11;;;;;;;33.00;22.50;;;10.50;81.60;;;;;;5079261;28;20465;-64
2023/04/21 03:21:45;;;;;;;41.93;25.40;;;10.60;81.70;;;;;;5079631;28;20485;-63
2023/04/21 03:24:18;;;;;;;39.73;24.70;;;10.60;81.70;;;;;;5079496;28;21319;-64
2023/04/21 03:26:52;;;;;;;40.60;26.03;;;10.60;81.70;;;;;;5066571;28;20472;-64
2023/04/21 03:29:34;;;;;;;43.03;25.67;;;10.60;81.60;;;;;;5076848;28;20552;-63
2023/04/21 03:32:07;;;;;;;40.53;25.57;;;10.60;81.60;;;;;;5077923;28;20473;-63
2023/04/21 03:34:49;;;;;;;42.70;24.30;;;10.60;81.70;;;;;;5063016;28;20553;-63
2023/04/21 03:37:29;;;;;;;39.50;24.53;;;10.60;81.70;;;;;;5077818;28;20439;-63
2023/04/21 03:40:04;;;;;;;39.43;24.17;;;10.60;81.70;;;;;;5078104;28;20581;-64
2023/04/21 03:42:36;;;;;;;39.10;22.17;;;10.60;81.70;;;;;;5066150;28;20463;-63
2023/04/21 03:45:12;;;;;;;40.73;23.73;;;10.60;81.70;;;;;;5070466;28;20484;-63
2023/04/21 03:47:44;;;;;;;38.10;23.73;;;10.60;81.80;;;;;;5084252;28;20457;-63
2023/04/21 03:50:23;;;;;;;38.13;23.17;;;10.60;81.80;;;;;;5061786;28;20574;-63
2023/04/21 03:52:57;;;;;;;37.43;23.07;;;10.70;81.80;;;;;;5082657;28;20910;-63
2023/04/21 03:55:26;;;;;;;38.23;23.80;;;10.60;81.80;;;;;;5078545;28;20938;-63
2023/04/21 03:58:00;;;;;;;44.13;26.70;;;10.70;81.80;;;;;;5082039;28;21058;-63
2023/04/21 04:00:40;;;;;;;39.23;25.00;;;10.70;81.80;;;;;;5083111;28;20479;-63
2023/04/21 04:03:11;;;;;;;48.90;28.43;;;10.70;81.80;;;;;;5084208;28;20478;-63
2023/04/21 04:05:52;;;;;;;44.60;27.67;;;10.60;81.70;;;;;;5077215;28;21277;-63
2023/04/21 04:08:33;;;;;;;45.80;29.30;;;10.60;81.70;;;;;;5077938;28;20457;-63
2023/04/21 04:11:14;;;;;;;48.90;28.87;;;10.60;81.80;;;;;;5079996;28;20540;-65
2023/04/21 04:13:49;;;;;;;55.03;29.37;;;10.60;81.80;;;;;;5078211;28;21013;-63
2023/04/21 04:16:29;;;;;;;44.07;26.57;;;10.60;81.80;;;;;;5081868;28;20964;-63
2023/04/21 04:19:02;;;;;;;51.33;30.17;;;10.60;81.80;;;;;;5082904;28;20453;-63
2023/04/21 04:21:33;;;;;;;49.10;28.63;;;10.60;81.90;;;;;;5080565;28;20597;-64
2023/04/21 04:24:10;;;;;;;44.93;28.10;;;10.60;82.00;;;;;;5079473;28;20836;-62
2023/04/21 04:26:50;;;;;;;43.87;26.80;;;10.60;82.00;;;;;;5080529;28;20526;-63
2023/04/21 04:29:25;;;;;;;44.10;27.53;;;10.60;82.00;;;;;;5080757;28;21028;-63
2023/04/21 04:31:59;;;;;;;42.67;26.50;;;10.60;82.00;;;;;;5076058;28;20477;-64
2023/04/21 04:34:36;;;;;;;38.63;24.17;;;10.60;82.00;;;;;;5084196;28;20461;-65
2023/04/21 04:37:12;;;;;;;38.20;24.90;;;10.70;82.00;;;;;;5083951;28;21368;-64
2023/04/21 04:39:43;;;;;;;40.27;24.03;;;10.70;82.00;;;;;;5080849;28;20470;-64
2023/04/21 04:42:21;;;;;;;39.80;25.30;;;10.70;82.00;;;;;;5072972;28;20528;-63
2023/04/21 04:45:07;;;;;;;45.33;29.00;;;10.70;82.00;;;;;;5079748;28;20501;-64
2023/04/21 04:47:40;;;;;;;49.20;28.70;;;10.70;82.00;;;;;;5079761;28;20453;-62
2023/04/21 04:50:13;;;;;;;48.37;27.70;;;10.70;82.00;;;;;;5088250;28;20886;-62
2023/04/21 04:52:52;;;;;;;45.40;28.40;;;10.70;82.00;;;;;;5079729;28;20892;-62
2023/04/21 04:55:31;;;;;;;52.87;29.93;;;10.60;82.00;;;;;;5087136;28;21008;-63
2023/04/21 04:58:05;;;;;;;53.60;30.90;;;10.60;82.00;;;;;;5072014;28;20460;-63
2023/04/21 05:00:39;;;;;;;50.00;31.17;;;10.60;82.10;;;;;;5085127;28;21024;-64
2023/04/21 05:03:15;;;;;;;50.53;29.10;;;10.70;82.10;;;;;;5087700;28;20475;-63
2023/04/21 05:05:45;;;;;;;50.60;29.07;;;10.70;82.10;;;;;;5088592;28;20522;-63
2023/04/21 05:08:18;;;;;;;46.77;27.83;;;10.70;82.10;;;;;;5068412;28;20484;-64
2023/04/21 05:10:58;;;;;;;57.90;32.97;;;10.70;82.10;;;;;;5079604;28;20522;-63
2023/04/21 05:13:33;;;;;;;52.20;32.13;;;10.70;82.20;;;;;;5085730;28;20455;-63
2023/04/21 05:16:14;;;;;;;60.37;32.63;;;10.70;82.10;;;;;;5070445;28;20525;-63
2023/04/21 05:18:49;;;;;;;59.80;31.63;;;10.70;82.20;;;;;;5082157;28;21841;-63
2023/04/21 05:21:27;;;;;;;59.57;34.10;;;10.70;82.20;;;;;;5085086;28;20785;-63
2023/04/21 05:24:01;;;;;;;59.37;33.20;;;10.70;82.20;;;;;;5085100;28;20465;-63
2023/04/21 05:26:32;;;;;;;62.07;33.50;;;10.70;82.20;;;;;;5084341;28;20933;-63
2023/04/21 05:29:05;;;;;;;58.27;33.20;;;10.70;82.30;;;;;;5076707;28;20462;-64
2023/04/21 05:31:41;;;;;;;63.40;34.07;;;10.70;82.30;;;;;;5085401;28;21488;-63
2023/04/21 05:34:19;;;;;;;59.23;33.27;;;10.70;82.20;;;;;;5084846;28;20464;-64
2023/04/21 05:36:51;;;;;;;59.73;31.80;;;10.70;82.30;;;;;;5089182;28;20489;-63
2023/04/21 05:39:24;;;;;;;56.00;29.93;;;10.70;82.40;;;;;;5085935;28;20896;-63
2023/04/21 05:41:57;;;;;;;54.73;30.30;;;10.70;82.40;;;;;;5085866;28;20497;-63
2023/04/21 05:44:30;;;;;;;60.03;29.93;;;10.70;82.40;;;;;;5084446;28;20527;-63
2023/04/21 05:47:16;;;;;;;48.73;29.13;;;10.70;82.40;;;;;;5083963;28;20469;-64
2023/04/21 05:52:33;;;;;;;50.50;30.60;;;10.70;82.50;;;;;;5085539;28;20452;-63
2023/04/21 05:55:11;;;;;;;51.60;30.40;;;10.70;82.50;;;;;;5081828;28;20465;-63
2023/04/21 05:57:45;;;;;;;50.37;29.77;;;10.70;82.50;;;;;;5079608;28;20498;-63
2023/04/21 06:00:20;;;;;;;53.63;29.83;;;10.80;82.50;;;;;;5081314;28;20972;-63
2023/04/21 06:02:53;;;;;;;55.37;31.27;;;10.70;82.60;;;;;;5090733;28;20509;-63
2023/04/21 06:05:37;;;;;;;48.77;30.10;;;10.80;82.60;;;;;;5083137;28;20472;-63
2023/04/21 06:08:23;;;;;;;53.80;30.77;;;10.80;82.60;;;;;;5079187;28;21018;-63
2023/04/21 06:10:51;;;;;;;52.67;30.47;;;10.80;82.60;;;;;;5083841;28;20460;-63
2023/04/21 06:13:21;;;;;;;58.10;34.10;;;10.80;82.60;;;;;;5081237;28;20516;-63
2023/04/21 06:16:01;;;;;;;60.67;35.20;;;10.80;82.60;;;;;;5085079;28;20465;-63
2023/04/21 06:18:35;;;;;;;65.13;34.23;;;10.80;82.60;;;;;;5082791;28;20461;-63
2023/04/21 06:21:06;;;;;;;53.67;31.30;;;10.80;82.60;;;;;;5082914;28;20791;-63
2023/04/21 06:23:47;;;;;;;73.00;39.80;;;10.70;82.60;;;;;;5084964;28;20477;-63
2023/04/21 06:26:20;;;;;;;56.17;33.47;;;10.70;82.80;;;;;;5069395;28;20466;-63
2023/04/21 06:28:49;;;;;;;48.67;31.37;;;10.70;82.80;;;;;;5080251;28;20449;-63
2023/04/21 06:31:25;;;;;;;59.07;33.27;;;10.80;82.90;;;;;;5075968;28;20479;-63
2023/04/21 06:34:05;;;;;;;55.10;33.30;;;10.80;82.90;;;;;;5083384;28;20465;-63
2023/04/21 06:36:38;;;;;;;61.00;35.30;;;10.80;83.00;;;;;;5083827;28;20453;-63
2023/04/21 06:39:18;;;;;;;55.77;34.40;;;10.90;83.00;;;;;;5079625;28;20923;-63
2023/04/21 06:41:56;;;;;;;57.73;33.00;;;10.90;83.10;;;;;;5081630;28;20475;-63
2023/04/21 06:44:31;;;;;;;52.80;32.57;;;11.00;83.10;;;;;;5083773;28;20465;-63
2023/04/21 06:47:06;;;;;;;57.03;35.50;;;11.10;83.10;;;;;;5080663;28;20527;-63
2023/04/21 06:49:53;;;;;;;53.53;32.93;;;11.10;83.00;;;;;;5083650;28;20467;-63
2023/04/21 06:52:26;;;;;;;49.57;30.87;;;11.20;83.00;;;;;;5083548;28;20844;-63
2023/04/21 06:54:59;;;;;;;53.30;32.37;;;11.30;83.00;;;;;;5081281;28;20938;-63
2023/04/21 06:57:30;;;;;;;48.33;31.17;;;11.30;83.00;;;;;;5082247;28;20911;-63
2023/04/21 07:00:04;;;;;;;79.60;46.17;;;11.40;83.10;;;;;;5079790;28;20550;-63
2023/04/21 07:02:35;;;;;;;48.63;30.90;;;11.50;83.20;;;;;;5077124;28;20476;-63
2023/04/21 07:05:16;;;;;;;49.37;30.70;;;11.60;83.10;;;;;;5083668;28;21095;-63
2023/04/21 07:07:50;;;;;;;48.30;28.87;;;11.70;83.00;;;;;;5081693;28;20453;-63
2023/04/21 07:10:22;;;;;;;46.93;31.07;;;11.70;82.90;;;;;;5084214;28;20815;-63
2023/04/21 07:12:57;;;;;;;42.80;27.00;;;11.70;82.80;;;;;;5081698;28;20440;-63
2023/04/21 07:15:29;;;;;;;43.10;28.83;;;11.70;82.90;;;;;;5062434;28;20529;-63
2023/04/21 07:18:11;;;;;;;50.40;29.40;;;11.70;83.00;;;;;;5080437;28;20473;-63
2023/04/21 07:20:47;;;;;;;43.40;29.40;;;11.80;83.00;;;;;;5082106;28;20982;-63
2023/04/21 07:23:19;;;;;;;46.60;28.90;;;11.80;82.90;;;;;;5085383;28;20482;-63
2023/04/21 07:25:54;;;;;;;48.90;30.50;;;11.80;83.00;;;;;;5082827;28;20448;-63
2023/04/21 07:28:27;;;;;;;46.40;29.97;;;11.80;83.10;;;;;;5063308;28;20460;-63
2023/04/21 07:30:58;;;;;;;45.27;31.20;;;11.90;83.10;;;;;;5075402;28;20587;-63
2023/04/21 07:33:36;;;;;;;45.40;28.50;;;11.90;82.90;;;;;;5083057;28;20923;-63
2023/04/21 07:36:23;;;;;;;42.17;26.33;;;11.80;82.90;;;;;;5083978;28;20926;-62
2023/04/21 07:39:02;;;;;;;44.23;28.90;;;11.80;83.10;;;;;;5084107;28;20467;-63
2023/04/21 07:44:28;;;;;;;41.43;27.20;;;11.90;83.10;;;;;;5080570;28;20501;-63
2023/04/21 07:46:58;;;;;;;44.60;28.33;;;11.90;82.90;;;;;;5084734;28;20944;-63
2023/04/21 07:49:37;;;;;;;44.23;28.47;;;11.90;83.00;;;;;;5065265;28;20810;-63
2023/04/21 07:52:14;;;;;;;40.70;27.53;;;12.00;82.90;;;;;;5081156;28;20775;-63
2023/04/21 07:54:45;;;;;;;48.87;30.70;;;12.00;82.90;;;;;;5082335;28;20471;-63
2023/04/21 07:57:23;;;;;;;42.67;28.07;;;12.00;82.80;;;;;;5081574;28;20491;-63
2023/04/21 07:59:54;;;;;;;40.20;28.90;;;11.90;82.80;;;;;;5082621;28;20475;-63
2023/04/21 08:02:36;;;;;;;45.00;30.97;;;11.90;82.80;;;;;;5014812;28;20556;-63
2023/04/21 08:05:12;;;;;;;46.10;30.33;;;12.00;82.90;;;;;;5081008;28;20453;-63
2023/04/21 08:08:03;;;;;;;43.30;28.53;;;12.00;82.90;;;;;;5086808;28;20854;-63
2023/04/21 08:13:23;;;;;;;51.07;31.37;;;12.10;82.70;;;;;;5081390;28;20538;-63
2023/04/21 08:15:53;;;;;;;47.90;30.00;;;12.10;82.70;;;;;;5081541;28;20477;-63
2023/04/21 08:18:26;;;;;;;44.40;28.43;;;12.10;82.70;;;;;;5075099;28;20472;-63
2023/04/21 08:21:00;;;;;;;45.63;29.47;;;12.20;82.70;;;;;;5084591;28;20482;-63
2023/04/21 08:23:40;;;;;;;51.07;30.20;;;12.20;82.60;;;;;;5081936;28;20502;-63
2023/04/21 08:26:12;;;;;;;45.50;29.33;;;12.20;82.60;;;;;;5081088;28;20469;-63
2023/04/21 08:28:47;;;;;;;43.50;28.10;;;12.20;82.60;;;;;;5081242;28;20467;-63
2023/04/21 08:31:28;;;;;;;41.67;28.80;;;12.20;82.60;;;;;;5063115;28;20491;-63
2023/04/21 08:34:10;;;;;;;66.23;35.17;;;12.30;82.50;;;;;;5060984;28;20467;-63
2023/04/21 08:36:41;;;;;;;43.90;28.17;;;12.30;82.50;;;;;;5079583;28;20450;-62
2023/04/21 08:39:19;;;;;;;40.53;27.73;;;12.30;82.50;;;;;;5061204;28;20552;-62
2023/04/21 08:41:52;;;;;;;43.90;27.47;;;12.30;82.60;;;;;;5077722;28;21022;-63
2023/04/21 08:44:25;;;;;;;42.40;27.03;;;12.30;82.50;;;;;;5078936;28;20500;-63
2023/04/21 08:47:06;;;;;;;45.30;28.37;;;12.30;82.50;;;;;;5085515;28;20499;-63
2023/04/21 08:49:41;;;;;;;146.43;80.20;;;12.40;82.40;;;;;;5077230;28;20464;-63
2023/04/21 08:52:14;;;;;;;45.07;30.77;;;12.40;82.40;;;;;;5083282;28;20991;-64
2023/04/21 08:54:50;;;;;;;42.13;30.90;;;12.40;82.40;;;;;;5087169;28;20455;-63
2023/04/21 08:57:24;;;;;;;40.47;27.50;;;12.50;82.40;;;;;;5079966;28;20518;-63
2023/04/21 08:59:54;;;;;;;42.03;28.67;;;12.50;82.40;;;;;;5082815;28;20455;-63
2023/04/21 09:02:28;;;;;;;41.70;28.33;;;12.60;82.50;;;;;;5081498;28;20486;-62
2023/04/21 09:04:58;;;;;;;56.33;36.37;;;12.70;82.60;;;;;;5083237;28;20483;-63
2023/04/21 09:07:38;;;;;;;35.43;25.33;;;12.80;82.60;;;;;;5079122;28;20782;-63
2023/04/21 09:10:15;;;;;;;34.67;24.20;;;12.80;82.50;;;;;;5085539;28;20471;-63
2023/04/21 09:12:55;;;;;;;35.87;24.73;;;12.90;82.20;;;;;;5078120;28;20556;-63
2023/04/21 09:15:28;;;;;;;40.97;26.50;;;12.90;82.00;;;;;;5081002;28;20468;-63
2023/04/21 09:18:02;;;;;;;35.70;26.13;;;13.00;82.00;;;;;;5081549;28;21213;-63
2023/04/21 09:20:39;;;;;;;35.93;25.77;;;13.00;81.80;;;;;;5060579;28;20459;-63
2023/04/21 09:23:15;;;;;;;34.30;25.60;;;13.00;81.70;;;;;;5062615;28;20570;-63
2023/04/21 09:25:50;;;;;;;36.43;26.67;;;13.00;81.60;;;;;;5063823;28;20529;-63
2023/04/21 09:28:22;;;;;;;35.10;26.57;;;13.10;81.70;;;;;;5049566;28;20526;-63
2023/04/21 09:30:59;;;;;;;42.30;30.57;;;13.10;81.60;;;;;;5019580;28;20489;-63
2023/04/21 09:33:35;;;;;;;38.37;28.37;;;13.10;81.50;;;;;;5036764;28;20999;-63
2023/04/21 09:36:28;;;;;;;37.30;25.43;;;13.10;81.50;;;;;;5051005;28;20459;-63
2023/04/21 09:39:01;;;;;;;35.33;27.40;;;13.10;81.50;;;;;;5051445;28;20541;-63
2023/04/21 09:41:37;;;;;;;40.67;28.03;;;13.10;81.40;;;;;;5057251;28;20492;-63
2023/04/21 09:44:11;;;;;;;34.50;26.33;;;13.10;81.40;;;;;;5055071;28;20597;-63
2023/04/21 09:46:47;;;;;;;36.23;26.73;;;13.10;81.40;;;;;;5041311;28;20456;-63
2023/04/21 09:49:24;;;;;;;38.77;26.20;;;13.20;81.30;;;;;;5058495;28;20455;-63
2023/04/21 09:51:59;;;;;;;38.80;26.27;;;13.10;81.30;;;;;;5052164;28;20475;-63
2023/04/21 09:54:53;;;;;;;35.93;27.47;;;13.20;81.30;;;;;;5055354;28;20465;-63
2023/04/21 09:57:32;;;;;;;39.23;27.70;;;13.20;81.20;;;;;;5022680;28;20808;-63
2023/04/21 10:00:08;;;;;;;34.23;24.40;;;13.20;81.10;;;;;;5000163;28;20457;-63
2023/04/21 10:02:52;;;;;;;42.57;28.00;;;13.20;81.10;;;;;;5059726;28;20492;-63
2023/04/21 10:05:26;;;;;;;36.23;26.73;;;13.30;80.90;;;;;;5057811;28;20493;-63
2023/04/21 10:07:59;;;;;;;41.37;27.53;;;13.30;80.80;;;;;;5060707;28;20471;-63
2023/04/21 10:10:34;;;;;;;32.33;24.73;;;13.30;80.90;;;;;;5061401;28;20511;-63
2023/04/21 10:13:10;;;;;;;37.40;27.53;;;13.30;80.90;;;;;;5058664;28;20493;-63
2023/04/21 10:15:42;;;;;;;38.20;28.20;;;13.30;80.80;;;;;;5024371;28;20457;-63
2023/04/21 10:18:19;;;;;;;35.87;27.20;;;13.40;80.70;;;;;;4987028;28;20463;-63
2023/04/21 10:20:57;;;;;;;33.60;24.80;;;13.50;80.70;;;;;;5047871;28;20468;-62
2023/04/21 10:23:46;;;;;;;41.20;28.70;;;13.60;80.60;;;;;;5057858;28;20800;-62
2023/04/21 10:26:25;;;;;;;38.77;26.53;;;13.60;80.50;;;;;;5058910;28;20476;-62
2023/04/21 10:29:15;;;;;;;31.13;23.10;;;13.70;80.40;;;;;;5062420;28;20462;-62
2023/04/21 10:32:01;;;;;;;33.50;23.90;;;13.80;80.20;;;;;;5060020;28;20592;-63
2023/04/21 10:34:38;;;;;;;34.47;23.97;;;13.80;80.20;;;;;;5058614;28;20507;-62
2023/04/21 10:37:18;;;;;;;36.40;27.17;;;13.90;80.30;;;;;;4976246;28;21009;-62
2023/04/21 10:39:58;;;;;;;34.00;24.03;;;13.90;80.30;;;;;;5017620;28;21117;-62
2023/04/21 10:42:42;;;;;;;31.00;22.63;;;14.00;80.00;;;;;;5052848;28;20477;-62
2023/04/21 10:45:26;;;;;;;34.60;23.20;;;14.10;80.10;;;;;;5056756;28;20579;-62
2023/04/21 10:48:02;;;;;;;31.33;23.20;;;14.20;80.00;;;;;;5060819;28;20489;-62
2023/04/21 10:50:37;;;;;;;31.00;22.53;;;14.20;79.80;;;;;;5062221;28;20556;-62
2023/04/21 10:53:11;;;;;;;31.67;24.00;;;14.30;79.70;;;;;;5055114;28;20464;-63
2023/04/21 10:55:48;;;;;;;28.27;22.10;;;14.40;79.20;;;;;;5033039;28;20461;-63
2023/04/21 10:58:25;;;;;;;30.40;23.50;;;14.40;79.10;;;;;;4980420;28;20452;-62
2023/04/21 11:01:01;;;;;;;31.87;22.40;;;14.40;79.10;;;;;;5038389;28;21020;-62
2023/04/21 11:03:38;;;;;;;32.33;24.77;;;14.50;78.90;;;;;;5057333;28;20468;-62
2023/04/21 11:06:17;;;;;;;31.70;22.73;;;14.50;78.80;;;;;;5058281;28;20955;-62
2023/04/21 11:08:59;;;;;;;30.60;22.17;;;14.50;78.80;;;;;;5041616;28;20593;-62
2023/04/21 11:11:37;;;;;;;31.97;23.30;;;14.60;78.70;;;;;;5047355;28;20466;-63
2023/04/21 11:14:07;;;;;;;36.00;23.20;;;14.60;78.70;;;;;;5050873;28;20558;-66
2023/04/21 11:16:43;;;;;;;29.07;22.57;;;14.60;78.60;;;;;;5010862;28;20457;-62
2023/04/21 11:19:23;;;;;;;28.40;22.67;;;14.70;78.40;;;;;;4965156;28;20474;-63
2023/04/21 11:22:02;;;;;;;33.77;23.23;;;14.70;78.30;;;;;;5057891;28;20470;-62
2023/04/21 11:24:33;;;;;;;29.40;20.80;;;14.80;78.30;;;;;;5055100;28;20489;-62
2023/04/21 11:27:18;;;;;;;30.10;21.17;;;14.80;78.30;;;;;;5039925;28;20531;-62
2023/04/21 11:29:50;;;;;;;29.83;22.13;;;14.80;78.20;;;;;;5059356;28;20472;-63
2023/04/21 11:32:21;;;;;;;28.27;21.90;;;14.90;78.10;;;;;;5053548;28;20540;-62
2023/04/21 11:34:53;;;;;;;26.17;21.40;;;14.90;78.00;;;;;;5054610;28;20490;-62
2023/04/21 11:37:34;;;;;;;34.10;20.93;;;14.90;77.90;;;;;;5057396;28;20464;-62
2023/04/21 11:40:07;;;;;;;24.00;19.07;;;15.00;77.80;;;;;;5010732;28;20459;-62
2023/04/21 11:42:53;;;;;;;25.97;20.77;;;15.00;77.70;;;;;;4976336;28;20628;-62
2023/04/21 11:45:30;;;;;;;22.93;18.07;;;15.00;77.30;;;;;;5052032;28;20480;-62
2023/04/21 11:48:19;;;;;;;28.60;18.23;;;15.10;77.40;;;;;;5059045;28;21049;-63
2023/04/21 11:50:58;;;;;;;23.40;18.33;;;15.20;77.00;;;;;;5056760;28;20485;-62
2023/04/21 11:53:32;;;;;;;25.13;18.97;;;15.30;76.80;;;;;;5050237;28;20473;-62
2023/04/21 11:56:00;;;;;;;24.13;17.50;;;15.30;76.80;;;;;;5054808;28;20457;-62
2023/04/21 11:58:28;;;;;;;26.53;19.10;;;15.30;76.50;;;;;;5056569;28;20471;-62
2023/04/21 12:00:57;;;;;;;32.47;19.47;;;15.40;76.50;;;;;;4985753;28;20545;-63
2023/04/21 12:03:27;;;;;;;24.70;18.20;;;15.40;76.40;;;;;;5033575;28;20981;-63
2023/04/21 12:06:02;;;;;;;23.97;16.37;;;15.50;76.30;;;;;;5033821;28;20490;-63
2023/04/21 12:08:32;;;;;;;25.73;17.67;;;15.60;76.30;;;;;;5048140;28;20478;-62
2023/04/21 12:11:10;;;;;;;22.47;17.10;;;15.60;76.30;;;;;;5057866;28;20908;-62
2023/04/21 12:13:43;;;;;;;60.63;20.83;;;15.70;76.10;;;;;;5053274;28;20483;-62
2023/04/21 12:16:14;;;;;;;22.23;16.90;;;15.80;75.90;;;;;;5054104;28;20498;-62
2023/04/21 12:18:52;;;;;;;22.77;17.10;;;15.80;75.90;;;;;;5059796;28;20452;-63
2023/04/21 12:21:30;;;;;;;25.37;17.30;;;16.00;75.90;;;;;;5056515;28;20558;-62
2023/04/21 12:24:03;;;;;;;25.77;18.20;;;16.10;75.50;;;;;;5035917;28;20461;-62
2023/04/21 12:26:32;;;;;;;22.40;16.90;;;16.10;75.40;;;;;;4988492;28;21470;-62
2023/04/21 12:29:11;;;;;;;20.60;16.20;;;16.20;75.10;;;;;;5056333;28;20467;-62
2023/04/21 12:31:42;;;;;;;21.10;16.13;;;16.30;75.00;;;;;;5056422;28;20484;-62
2023/04/21 12:34:16;;;;;;;21.90;17.17;;;16.30;74.70;;;;;;5052629;28;20480;-62
2023/04/21 12:36:45;;;;;;;19.97;15.80;;;16.40;74.50;;;;;;5055650;28;20594;-62
2023/04/21 12:39:16;;;;;;;21.77;16.60;;;16.40;74.40;;;;;;5050310;28;20471;-62
2023/04/21 12:41:46;;;;;;;20.73;15.70;;;16.40;74.20;;;;;;5049553;28;20974;-62
2023/04/21 12:44:17;;;;;;;24.60;18.43;;;16.50;74.20;;;;;;4978760;28;21055;-62
2023/04/21 12:46:47;;;;;;;20.10;15.13;;;16.60;74.10;;;;;;4991802;28;20476;-63
2023/04/21 12:49:20;;;;;;;19.53;14.13;;;16.70;74.00;;;;;;5060554;28;20468;-62
2023/04/21 12:54:46;;;;;;;22.27;15.93;;;16.80;73.50;;;;;;5055109;28;22016;-63
2023/04/21 12:57:15;;;;;;;21.83;14.40;;;16.90;73.40;;;;;;5056062;28;20461;-62
2023/04/21 12:59:46;;;;;;;24.87;16.53;;;16.90;73.10;;;;;;5053488;28;20528;-62
2023/04/21 13:02:17;;;;;;;19.70;16.07;;;17.10;73.00;;;;;;5020633;28;20481;-62
2023/04/21 13:04:50;;;;;;;24.53;15.67;;;17.10;73.00;;;;;;5027751;28;20470;-62
2023/04/21 13:07:26;;;;;;;24.43;16.90;;;17.10;72.80;;;;;;5054384;28;20469;-62
2023/04/21 13:09:55;;;;;;;22.10;16.53;;;17.20;72.60;;;;;;5057947;28;20556;-62
2023/04/21 13:12:32;;;;;;;22.87;17.30;;;17.20;72.50;;;;;;5053295;28;20466;-62
2023/04/21 13:15:03;;;;;;;27.37;17.77;;;17.20;72.40;;;;;;5054072;28;20473;-62
2023/04/21 13:17:31;;;;;;;22.90;16.57;;;17.30;72.30;;;;;;5057269;28;20709;-62
2023/04/21 13:20:05;;;;;;;23.10;14.50;;;17.30;72.20;;;;;;5013706;28;20956;-62
2023/04/21 13:22:40;;;;;;;24.33;16.40;;;17.40;72.00;;;;;;5060176;28;20777;-62